Time;durP1;ratioP1;P1;durP2;ratioP2;P2;SDS_P1;SDS_P2;PMS_P1;PMS_P2;Temp;Humidity;BMP_temperature;BMP_pressure;BME280_temperature;BME280_humidity;BME280_pressure;Samples;Min_cycle;Max_cycle;Signal;HPM_P1;HPM_P2
2022/11/01 07:35:52;;;;;;;5.60;2.40;;;;;;;4.74;57.68;99818.80;31114;1337;3012680;-62
2022/11/01 07:38:21;;;;;;;4.40;2.40;;;;;;;4.80;57.16;99819.31;24409;1345;3027604;-63
2022/11/01 07:40:52;;;;;;;6.20;2.00;;;;;;;4.83;57.03;99815.04;24494;1336;3025786;-65
2022/11/01 07:43:22;;;;;;;3.90;1.70;;;;;;;4.80;56.29;99819.81;24474;1344;3050246;-63
2022/11/01 07:45:50;;;;;;;4.90;2.10;;;;;;;4.76;56.17;99819.80;24482;1329;3030368;-69
2022/11/01 07:48:20;;;;;;;7.00;1.90;;;;;;;4.87;55.95;99813.52;24135;1337;3057803;-69
2022/11/01 07:50:49;;;;;;;5.40;1.80;;;;;;;4.89;55.56;99815.38;24523;1327;3029749;-69
2022/11/01 07:53:18;;;;;;;6.00;2.10;;;;;;;4.72;55.88;99818.02;24457;1342;3049832;-66
2022/11/01 07:55:49;;;;;;;6.50;2.00;;;;;;;4.93;55.48;99814.39;24530;1327;3027397;-68
2022/11/01 07:58:18;;;;;;;7.20;1.90;;;;;;;4.87;55.30;99819.09;24479;1337;3028225;-68
2022/11/01 08:00:47;;;;;;;4.70;2.20;;;;;;;4.96;55.48;99814.66;24524;1334;3027880;-63
2022/11/01 08:03:18;;;;;;;6.20;2.30;;;;;;;5.08;55.30;99810.97;24408;1336;3053005;-71
2022/11/01 08:05:48;;;;;;;5.50;1.80;;;;;;;4.92;54.96;99821.20;24429;1330;3027916;-65
2022/11/01 08:08:17;;;;;;;4.80;2.20;;;;;;;4.97;55.24;99815.33;24437;1336;3029722;-68
2022/11/01 08:10:46;;;;;;;4.40;2.10;;;;;;;5.13;55.15;99827.30;24464;1327;3051605;-68
2022/11/01 08:13:17;;;;;;;5.40;2.50;;;;;;;5.01;55.39;99822.80;24503;1329;3026337;-71
2022/11/01 08:15:48;;;;;;;5.10;2.10;;;;;;;5.11;55.30;99821.27;24444;1335;3049136;-62
2022/11/01 08:18:18;;;;;;;6.40;2.60;;;;;;;5.28;54.96;99824.04;24536;1336;3026974;-65
2022/11/01 08:20:48;;;;;;;3.10;1.60;;;;;;;5.33;54.61;99821.44;24610;1336;3028496;-63
2022/11/01 08:23:17;;;;;;;6.50;1.90;;;;;;;5.32;53.54;99838.13;24547;1328;3027319;-61
2022/11/01 08:25:46;;;;;;;6.30;1.80;;;;;;;5.34;52.54;99825.40;24445;1336;3052938;-59
2022/11/01 08:28:17;;;;;;;5.30;1.50;;;;;;;5.34;52.47;99837.21;24461;1336;3028006;-63
2022/11/01 08:30:47;;;;;;;3.10;1.50;;;;;;;5.31;52.51;99836.42;24495;1328;3026539;-66
2022/11/01 08:33:16;;;;;;;4.20;1.20;;;;;;;5.34;52.64;99843.64;24465;1336;3025881;-68
2022/11/01 08:35:45;;;;;;;4.20;1.40;;;;;;;5.47;52.53;99835.22;24500;1327;3028352;-69
2022/11/01 08:38:15;;;;;;;2.60;1.30;;;;;;;5.44;51.69;99839.30;24461;1341;3069904;-67
2022/11/01 08:40:44;;;;;;;5.30;1.50;;;;;;;5.44;50.91;99837.05;24476;1330;3028542;-65
2022/11/01 08:43:14;;;;;;;4.00;1.20;;;;;;;5.47;50.66;99837.30;24453;1339;3049667;-71
2022/11/01 08:45:43;;;;;;;4.50;1.30;;;;;;;5.44;50.54;99842.63;24415;1336;3028978;-66
2022/11/01 08:48:13;;;;;;;4.70;1.20;;;;;;;5.48;50.56;99845.93;24438;1336;3053440;-69
2022/11/01 08:50:42;;;;;;;3.30;1.60;;;;;;;5.51;50.92;99839.08;24448;1336;3030512;-62
2022/11/01 08:53:12;;;;;;;4.70;1.10;;;;;;;5.53;51.33;99829.80;24440;1337;3051504;-70
2022/11/01 08:55:42;;;;;;;2.70;1.20;;;;;;;5.83;50.84;99823.20;24429;1328;3028359;-69
2022/11/01 08:58:11;;;;;;;2.80;1.50;;;;;;;6.11;50.41;99817.17;24471;1327;3029613;-64
2022/11/01 09:00:41;;;;;;;2.80;1.60;;;;;;;6.07;49.65;99828.81;24405;1330;3050509;-66
2022/11/01 09:03:10;;;;;;;4.90;2.10;;;;;;;5.85;49.74;99843.46;24427;1336;3027599;-65
2022/11/01 09:05:39;;;;;;;7.50;2.90;;;;;;;5.90;49.34;99832.54;24501;1335;3029730;-72
2022/11/01 09:08:08;;;;;;;4.50;2.60;;;;;;;5.83;49.17;99836.05;24423;1334;3052102;-64
2022/11/01 09:10:38;;;;;;;5.00;2.50;;;;;;;5.81;49.66;99826.73;24436;1342;3029276;-65
2022/11/01 09:13:11;;;;;;;11.30;3.40;;;;;;;5.76;49.84;99819.45;24451;1342;3026597;-71
2022/11/01 09:15:40;;;;;;;5.80;2.80;;;;;;;5.98;49.67;99814.33;24483;1333;3029784;-71
2022/11/01 09:18:09;;;;;;;6.50;2.80;;;;;;;6.20;49.58;99809.04;24588;1323;3029606;-69
2022/11/01 09:20:38;;;;;;;7.00;2.30;;;;;;;6.41;48.61;99806.50;24524;1341;3050129;-68
2022/11/01 09:23:11;;;;;;;4.60;2.00;;;;;;;6.44;47.66;99809.87;24502;1332;3028555;-66
2022/11/01 09:25:42;;;;;;;7.60;2.40;;;;;;;6.57;48.06;99802.77;24563;1333;3027377;-69
2022/11/01 09:28:11;;;;;;;6.60;2.50;;;;;;;6.58;47.99;99794.37;24587;1326;3049385;-64
2022/11/01 09:30:40;;;;;;;6.30;2.80;;;;;;;6.59;47.88;99802.17;24462;1333;3030206;-68
2022/11/01 09:33:09;;;;;;;9.50;2.30;;;;;;;6.36;47.90;99798.02;24570;1326;3029372;-64
2022/11/01 09:35:39;;;;;;;5.30;2.10;;;;;;;6.40;47.51;99809.86;24548;1325;3050363;-66
2022/11/01 09:38:08;;;;;;;5.70;1.70;;;;;;;6.50;46.90;99794.70;24480;1320;3028880;-64
2022/11/01 09:40:42;;;;;;;5.60;2.10;;;;;;;6.69;46.60;99789.79;24526;1333;3053819;-70
2022/11/01 09:43:17;;;;;;;7.30;2.80;;;;;;;6.89;46.24;99789.14;24795;1339;3050124;-69
2022/11/01 09:45:47;;;;;;;8.20;2.50;;;;;;;6.86;46.00;99791.00;24703;1334;3071030;-70
2022/11/01 09:48:16;;;;;;;9.90;2.90;;;;;;;7.10;45.29;99781.87;24650;1334;3029913;-68
2022/11/01 09:50:46;;;;;;;8.30;2.90;;;;;;;7.20;45.17;99783.16;24626;1327;3027717;-71
2022/11/01 09:53:18;;;;;;;4.60;2.40;;;;;;;7.26;44.76;99776.84;24570;1326;3027802;-62
2022/11/01 09:56:11;;;;;;;6.10;2.30;;;;;;;7.42;44.00;99778.95;24521;1333;3050737;-64
2022/11/01 09:59:06;;;;;;;4.70;2.00;;;;;;;7.43;43.21;99786.41;24560;1326;3055963;-69
2022/11/01 10:01:54;;;;;;;6.20;2.10;;;;;;;7.62;43.26;99789.08;24668;1333;3053287;-75
2022/11/01 10:04:49;;;;;;;9.80;3.50;;;;;;;7.52;43.72;99797.87;24620;1333;3054371;-66
2022/11/01 10:07:41;;;;;;;9.00;3.50;;;;;;;7.51;44.03;99789.20;24602;1333;3051175;-67
2022/11/01 10:10:33;;;;;;;6.50;2.50;;;;;;;7.48;43.91;99787.24;24971;1324;3053054;-64
2022/11/01 10:13:29;;;;;;;6.90;2.60;;;;;;;7.53;43.73;99790.33;24603;1332;3050292;-66
2022/11/01 10:16:13;;;;;;;6.00;2.10;;;;;;;7.69;43.32;99786.87;24813;1326;3070336;-71
2022/11/01 10:19:10;;;;;;;4.10;1.60;;;;;;;7.69;42.41;99796.61;24522;1334;3051354;-66
2022/11/01 10:21:43;;;;;;;;;;;;;;;7.84;42.61;99786.06;24618;1333;3056569;-63
2022/11/01 10:24:15;;;;;;;11.00;2.40;;;;;;;7.82;42.54;99788.40;24603;1317;3053165;-59
2022/11/01 10:26:44;;;;;;;4.60;1.70;;;;;;;7.94;42.46;99786.46;24484;1333;3026511;-65
2022/11/01 10:29:20;;;;;;;6.10;1.80;;;;;;;8.09;42.52;99775.52;24586;1326;3029245;-70
2022/11/01 10:31:51;;;;;;;8.20;1.60;;;;;;;8.41;41.96;99770.72;24576;1326;3054453;-68
2022/11/01 10:34:26;;;;;;;3.10;1.20;;;;;;;8.50;41.03;99780.30;24576;1333;3028394;-69
2022/11/01 10:37:24;;;;;;;5.70;1.80;;;;;;;8.46;40.53;99771.92;24694;1332;3050286;-71
2022/11/01 10:40:01;;;;;;;1.70;1.20;;;;;;;8.48;40.54;99771.31;24636;1334;3053785;-68
2022/11/01 10:42:30;;;;;;;2.90;1.20;;;;;;;8.53;39.90;99772.13;24553;1326;3052636;-68
2022/11/01 10:45:14;;;;;;;2.40;1.10;;;;;;;8.50;39.31;99772.09;24723;1333;3070667;-68
2022/11/01 10:47:44;;;;;;;3.40;1.30;;;;;;;8.39;39.44;99781.66;24642;1330;3050000;-66
2022/11/01 10:50:18;;;;;;;5.40;1.60;;;;;;;8.44;39.51;99781.60;24551;1336;3027073;-71
2022/11/01 10:52:48;;;;;;;3.90;1.70;;;;;;;8.55;39.74;99773.41;24611;1326;3054009;-69
2022/11/01 10:55:26;;;;;;;4.00;1.50;;;;;;;8.36;40.18;99774.82;24587;1333;3027264;-66
2022/11/01 10:58:03;;;;;;;3.90;1.50;;;;;;;8.35;40.39;99776.05;24497;1325;3052769;-69
2022/11/01 11:00:35;;;;;;;2.50;1.40;;;;;;;8.42;40.49;99783.80;24813;1333;3053237;-64
2022/11/01 11:03:17;;;;;;;1.80;1.00;;;;;;;8.50;39.37;99786.77;24629;1327;3025695;-65
2022/11/01 11:05:46;;;;;;;0.90;0.60;;;;;;;8.46;39.57;99786.25;24618;1333;3068895;-66
2022/11/01 11:08:17;;;;;;;1.90;0.80;;;;;;;8.44;39.73;99783.33;24631;1333;3027801;-65
2022/11/01 11:10:48;;;;;;;2.50;1.00;;;;;;;8.66;39.81;99776.23;24553;1342;3026011;-67
2022/11/01 11:13:19;;;;;;;3.90;1.20;;;;;;;8.66;39.58;99788.81;24635;1340;3028110;-70
2022/11/01 11:16:03;;;;;;;5.80;1.80;;;;;;;8.69;39.34;99783.91;24593;1332;3026471;-72
2022/11/01 11:18:36;;;;;;;4.40;1.70;;;;;;;8.70;39.62;99781.12;24525;1333;3051731;-73
2022/11/01 11:21:10;;;;;;;4.10;1.40;;;;;;;8.92;39.24;99780.91;24598;1333;3052692;-67
2022/11/01 11:23:44;;;;;;;2.90;1.20;;;;;;;9.01;39.15;99778.54;24572;1333;3028054;-63
2022/11/01 11:26:16;;;;;;;1.90;0.80;;;;;;;9.09;38.96;99773.06;24491;1332;3070053;-67
2022/11/01 11:28:54;;;;;;;2.90;1.00;;;;;;;8.77;39.15;99778.31;24503;1333;3028195;-66
2022/11/01 11:31:32;;;;;;;2.70;0.90;;;;;;;8.79;39.48;99766.38;24589;1320;3058473;-70
2022/11/01 11:34:04;;;;;;;1.50;0.90;;;;;;;9.01;39.65;99761.95;24586;1333;3054118;-71
2022/11/01 11:36:37;;;;;;;3.00;0.90;;;;;;;9.15;39.49;99759.16;24681;1333;3052058;-65
2022/11/01 11:39:06;;;;;;;2.40;0.90;;;;;;;9.21;39.63;99775.47;24556;1325;3027309;-67
2022/11/01 11:41:37;;;;;;;6.10;0.90;;;;;;;9.20;39.70;99782.85;24695;1333;3028127;-70
2022/11/01 11:44:43;;;;;;;2.90;1.20;;;;;;;9.20;39.76;99769.05;24570;1333;3027007;-70
2022/11/01 11:47:34;;;;;;;2.30;0.90;;;;;;;9.29;39.79;99776.11;24586;1333;3069368;-68
2022/11/01 11:50:18;;;;;;;3.90;1.00;;;;;;;9.51;39.48;99773.10;24625;1333;3052281;-70
2022/11/01 11:52:55;;;;;;;5.60;1.10;;;;;;;9.59;39.59;99771.09;24555;1333;3057809;-71
2022/11/01 11:55:34;;;;;;;4.70;0.70;;;;;;;9.50;39.79;99772.06;24511;1329;3052680;-68
2022/11/01 11:58:04;;;;;;;3.70;1.20;;;;;;;9.61;39.83;99770.13;24557;1343;3052490;-65
2022/11/01 12:00:35;;;;;;;6.10;0.90;;;;;;;9.72;39.85;99769.21;24563;1332;3026495;-63
2022/11/01 12:03:04;;;;;;;2.30;1.10;;;;;;;9.61;39.62;99769.94;24601;1333;3026770;-73
2022/11/01 12:05:35;;;;;;;2.00;1.00;;;;;;;9.39;39.85;99779.63;24690;1333;3025534;-69
2022/11/01 12:08:05;;;;;;;2.00;1.20;;;;;;;9.27;39.67;99784.61;24785;1333;3026699;-65
2022/11/01 12:10:38;;;;;;;4.20;1.00;;;;;;;9.45;39.53;99778.64;24599;1329;3027236;-66
2022/11/01 12:13:40;;;;;;;5.00;1.00;;;;;;;9.38;39.66;99783.71;24674;1327;3049606;-63
2022/11/01 12:16:23;;;;;;;6.30;1.50;;;;;;;9.52;39.71;99769.02;24618;1333;3069083;-66
2022/11/01 12:19:00;;;;;;;3.30;1.20;;;;;;;9.50;39.45;99773.83;24616;1333;3051005;-64
2022/11/01 12:21:33;;;;;;;6.60;2.00;;;;;;;9.65;38.97;99777.27;24714;1327;3058739;-62
2022/11/01 12:24:14;;;;;;;2.80;1.20;;;;;;;9.66;38.74;99771.45;24638;1333;3027127;-66
2022/11/01 12:26:44;;;;;;;3.70;1.20;;;;;;;9.88;38.56;99773.42;24559;1333;3052238;-62
2022/11/01 12:29:22;;;;;;;5.20;1.40;;;;;;;9.97;38.68;99773.83;24662;1326;3027419;-64
2022/11/01 12:31:51;;;;;;;3.40;0.90;;;;;;;9.93;38.71;99776.33;24693;1333;3052343;-64
2022/11/01 12:34:22;;;;;;;3.40;1.50;;;;;;;10.03;38.33;99780.88;24565;1333;3026473;-66
2022/11/01 12:36:57;;;;;;;3.80;1.30;;;;;;;10.14;38.20;99776.61;24675;1333;3057194;-68
2022/11/01 12:39:39;;;;;;;2.50;1.30;;;;;;;10.36;37.93;99782.30;24590;1332;3054503;-64
2022/11/01 12:42:09;;;;;;;3.90;1.40;;;;;;;10.32;38.02;99786.68;24677;1332;3053114;-68
2022/11/01 12:44:40;;;;;;;6.00;1.60;;;;;;;10.31;38.06;99789.19;24549;1329;3026069;-60
2022/11/01 12:47:29;;;;;;;3.20;1.30;;;;;;;10.24;38.31;99786.96;24730;1326;3051933;-63
2022/11/01 12:50:17;;;;;;;3.60;1.20;;;;;;;10.18;38.64;99792.52;24601;1333;3049898;-62
2022/11/01 12:52:54;;;;;;;3.80;1.40;;;;;;;10.17;38.68;99789.79;24624;1326;3069665;-69
2022/11/01 12:55:33;;;;;;;3.00;1.20;;;;;;;10.18;38.76;99792.14;24718;1333;3049173;-65
2022/11/01 12:58:03;;;;;;;2.30;1.10;;;;;;;10.15;38.64;99796.89;24586;1327;3058469;-68
2022/11/01 13:01:14;;;;;;;3.80;1.70;;;;;;;10.13;38.50;99806.43;24697;1333;3029063;-66
2022/11/01 13:03:51;;;;;;;8.40;2.70;;;;;;;10.22;38.62;99799.82;24689;1325;3055038;-61
2022/11/01 13:06:32;;;;;;;8.60;3.00;;;;;;;10.07;38.44;99796.44;24563;1333;3053312;-67
2022/11/01 13:09:20;;;;;;;9.60;3.10;;;;;;;10.11;38.18;99797.98;24618;1326;3053355;-67
2022/11/01 13:11:59;;;;;;;7.30;2.70;;;;;;;10.11;37.89;99798.83;24709;1327;3051144;-64
2022/11/01 13:14:47;;;;;;;5.60;2.50;;;;;;;10.06;38.12;99792.42;24764;1327;3068847;-65
2022/11/01 13:17:22;;;;;;;4.80;2.00;;;;;;;10.21;38.04;99793.95;24690;1336;3051355;-65
2022/11/01 13:20:04;;;;;;;3.60;1.60;;;;;;;10.17;38.18;99796.42;24639;1332;3057534;-64
2022/11/01 13:22:38;;;;;;;4.50;1.60;;;;;;;10.03;38.29;99794.20;24717;1327;3053367;-68
2022/11/01 13:25:21;;;;;;;3.10;1.40;;;;;;;9.86;38.22;99793.48;24714;1324;3054852;-61
2022/11/01 13:28:17;;;;;;;2.10;1.10;;;;;;;9.83;38.41;99799.77;24547;1334;3051547;-61
2022/11/01 13:31:18;;;;;;;4.00;1.40;;;;;;;9.84;38.36;99794.49;24586;1321;3052604;-66
2022/11/01 13:34:03;;;;;;;5.00;2.00;;;;;;;9.90;38.40;99796.23;24575;1333;3050634;-64
2022/11/01 13:36:35;;;;;;;4.10;1.50;;;;;;;9.80;38.57;99792.04;24586;1333;3069650;-62
2022/11/01 13:39:09;;;;;;;4.20;1.50;;;;;;;9.76;38.93;99798.04;24562;1337;3026990;-69
2022/11/01 13:41:50;;;;;;;5.10;2.10;;;;;;;9.97;38.68;99791.90;24516;1325;3057422;-67
2022/11/01 13:44:24;;;;;;;3.80;1.40;;;;;;;9.85;38.42;99793.36;24628;1332;3053261;-65
2022/11/01 13:47:33;;;;;;;4.60;1.60;;;;;;;9.72;38.72;99787.55;24620;1333;3054390;-66
2022/11/01 13:50:07;;;;;;;4.10;1.60;;;;;;;9.78;38.32;99775.38;24564;1336;3052983;-66
2022/11/01 13:52:41;;;;;;;3.40;1.50;;;;;;;9.68;38.64;99784.11;24644;1325;3054325;-64
2022/11/01 13:55:16;;;;;;;3.80;1.60;;;;;;;9.82;38.92;99776.95;24560;1325;3049097;-69
2022/11/01 13:57:47;;;;;;;3.90;1.90;;;;;;;9.79;39.02;99785.49;24496;1333;3069731;-65
2022/11/01 14:00:45;;;;;;;10.20;2.30;;;;;;;9.84;39.16;99779.80;24617;1333;3025999;-64
2022/11/01 14:03:29;;;;;;;8.80;3.00;;;;;;;9.80;39.06;99774.05;24720;1325;3055728;-58
2022/11/01 14:06:08;;;;;;;10.90;3.90;;;;;;;9.65;39.52;99773.93;24611;1333;3053814;-62
2022/11/01 14:08:48;;;;;;;10.40;4.20;;;;;;;9.45;39.57;99776.16;24597;1333;3052999;-66
2022/11/01 14:11:56;;;;;;;10.80;3.30;;;;;;;9.27;39.53;99791.07;24559;1330;3051703;-64
2022/11/01 14:14:28;;;;;;;11.70;3.20;;;;;;;9.09;39.71;99784.96;24533;1332;3054222;-64
2022/11/01 14:17:19;;;;;;;7.30;2.60;;;;;;;8.95;40.03;99784.45;24498;1339;3026836;-65
2022/11/01 14:20:13;;;;;;;5.80;2.10;;;;;;;8.86;40.30;99775.43;24647;1318;3069497;-62
2022/11/01 14:22:43;;;;;;;6.00;2.20;;;;;;;8.76;40.37;99774.37;24623;1325;3051231;-64
2022/11/01 14:25:13;;;;;;;4.90;2.20;;;;;;;8.73;40.63;99770.10;24569;1333;3026862;-69
2022/11/01 14:27:43;;;;;;;6.30;2.00;;;;;;;8.66;40.73;99772.05;24590;1326;3027936;-66
2022/11/01 14:30:20;;;;;;;7.20;2.80;;;;;;;8.54;40.83;99775.04;24681;1326;3049860;-65
2022/11/01 14:32:53;;;;;;;6.40;2.40;;;;;;;8.56;40.87;99776.70;24609;1327;3056964;-73
2022/11/01 14:35:35;;;;;;;7.50;2.40;;;;;;;8.41;41.14;99776.15;24620;1333;3026974;-66
2022/11/01 14:38:17;;;;;;;8.00;2.40;;;;;;;8.32;41.25;99772.70;24607;1332;3054072;-69
2022/11/01 14:40:53;;;;;;;9.10;2.70;;;;;;;8.34;41.30;99780.13;24600;1326;3051537;-70
2022/11/01 14:43:29;;;;;;;8.60;2.50;;;;;;;8.28;41.31;99780.40;24586;1326;3052361;-66
2022/11/01 14:46:02;;;;;;;6.90;2.90;;;;;;;8.15;41.63;99785.02;24581;1333;3049450;-66
2022/11/01 14:48:45;;;;;;;7.60;2.70;;;;;;;8.06;41.87;99782.97;24617;1327;3027525;-66
2022/11/01 14:51:45;;;;;;;10.90;3.20;;;;;;;8.04;41.68;99780.77;24486;1333;3051127;-68
2022/11/01 14:54:34;;;;;;;7.40;2.50;;;;;;;8.00;41.89;99784.27;24789;1326;3058379;-67
2022/11/01 14:57:19;;;;;;;7.80;3.10;;;;;;;7.96;42.01;99785.17;24705;1333;3053787;-61
2022/11/01 14:59:49;;;;;;;6.20;2.80;;;;;;;7.97;42.16;99777.82;24691;1335;3055117;-66
2022/11/01 15:02:18;;;;;;;9.40;2.80;;;;;;;7.96;42.02;99781.50;24539;1331;3027304;-73
2022/11/01 15:04:50;;;;;;;8.70;2.90;;;;;;;7.88;42.40;99777.99;24648;1328;3027031;-63
2022/11/01 15:07:27;;;;;;;5.90;2.70;;;;;;;7.79;42.64;99781.19;24737;1327;3030553;-66
2022/11/01 15:10:03;;;;;;;7.90;2.80;;;;;;;7.72;42.82;99781.34;24533;1326;3068855;-64
2022/11/01 15:12:35;;;;;;;13.00;2.40;;;;;;;7.65;42.97;99782.50;24750;1333;3051178;-69
2022/11/01 15:15:04;;;;;;;8.80;2.80;;;;;;;7.65;42.99;99782.55;24916;1318;3026292;-68
2022/11/01 15:17:34;;;;;;;6.20;2.60;;;;;;;7.61;43.18;99786.71;24627;1325;3026741;-72
2022/11/01 15:20:12;;;;;;;6.10;2.40;;;;;;;7.57;43.23;99790.34;24828;1326;3026888;-62
2022/11/01 15:22:41;;;;;;;8.70;3.10;;;;;;;7.51;43.65;99795.14;24678;1333;3056715;-64
2022/11/01 15:25:22;;;;;;;9.70;4.00;;;;;;;7.53;43.42;99796.10;24584;1332;3030038;-69
2022/11/01 15:27:51;;;;;;;11.70;5.10;;;;;;;7.48;43.59;99799.45;24728;1334;3053770;-68
2022/11/01 15:30:23;;;;;;;10.00;4.10;;;;;;;7.47;43.68;99802.64;24696;1327;3027868;-65
2022/11/01 15:33:11;;;;;;;11.60;4.20;;;;;;;7.44;43.86;99800.48;24707;1332;3027514;-68
2022/11/01 15:35:40;;;;;;;12.30;4.70;;;;;;;7.37;44.20;99802.35;24600;1333;3051089;-72
2022/11/01 15:38:17;;;;;;;11.40;4.00;;;;;;;7.33;44.52;99793.64;24545;1332;3026592;-65
2022/11/01 15:40:47;;;;;;;9.10;3.50;;;;;;;7.31;44.22;99798.60;24472;1332;3054085;-62
2022/11/01 15:43:25;;;;;;;9.40;3.70;;;;;;;7.20;44.64;99789.08;24501;1326;3026758;-71
2022/11/01 15:45:58;;;;;;;6.50;3.00;;;;;;;7.15;44.88;99794.55;24540;1333;3070454;-73
2022/11/01 15:48:30;;;;;;;12.70;3.50;;;;;;;7.21;44.70;99796.23;24538;1326;3051073;-73
2022/11/01 15:51:02;;;;;;;17.70;3.40;;;;;;;7.28;44.62;99792.63;24659;1333;3026908;-68
2022/11/01 15:53:33;;;;;;;9.40;3.40;;;;;;;7.25;44.79;99794.48;24779;1324;3026226;-70
2022/11/01 15:56:19;;;;;;;11.20;3.90;;;;;;;7.23;44.95;99799.97;24727;1329;3025872;-66
2022/11/01 15:58:55;;;;;;;10.10;3.90;;;;;;;7.16;45.47;99798.86;24617;1324;3052919;-73
2022/11/01 16:01:24;;;;;;;11.50;3.80;;;;;;;7.10;45.69;99798.96;24565;1322;3053244;-62
2022/11/01 16:04:00;;;;;;;10.40;4.20;;;;;;;7.02;46.10;99803.61;24661;1325;3027595;-73
2022/11/01 16:06:40;;;;;;;10.80;3.90;;;;;;;6.98;46.31;99803.62;24626;1335;3053670;-67
2022/11/01 16:09:41;;;;;;;12.00;4.40;;;;;;;7.02;46.31;99804.66;24561;1333;3052895;-63
2022/11/01 16:12:19;;;;;;;10.00;4.80;;;;;;;6.97;46.64;99810.46;25031;1333;3049985;-73
2022/11/01 16:15:18;;;;;;;12.00;5.20;;;;;;;6.91;46.80;99810.30;24579;1327;3069188;-64
2022/11/01 16:17:47;;;;;;;12.10;4.70;;;;;;;6.85;46.96;99815.59;24513;1343;3051299;-69
2022/11/01 16:20:33;;;;;;;12.00;5.00;;;;;;;6.89;47.05;99812.16;24667;1333;3028009;-65
2022/11/01 16:23:05;;;;;;;12.00;4.40;;;;;;;6.86;47.09;99816.10;24517;1327;3051756;-66
2022/11/01 16:25:36;;;;;;;11.20;5.00;;;;;;;6.88;47.13;99816.16;24635;1332;3027624;-70
2022/11/01 16:28:28;;;;;;;9.40;4.50;;;;;;;6.81;47.34;99815.25;24525;1327;3028452;-71
2022/11/01 16:30:57;;;;;;;11.70;4.20;;;;;;;6.83;47.37;99817.59;24628;1334;3054522;-69
2022/11/01 16:33:32;;;;;;;9.70;4.70;;;;;;;6.79;47.48;99816.38;24591;1331;3026597;-68
2022/11/01 16:36:17;;;;;;;13.80;5.40;;;;;;;6.72;47.81;99817.51;24527;1332;3068719;-68
2022/11/01 16:38:50;;;;;;;15.60;5.20;;;;;;;6.65;48.02;99808.91;24573;1332;3050580;-70
2022/11/01 16:41:30;;;;;;;12.80;5.30;;;;;;;6.68;48.00;99807.21;24502;1325;3056031;-67
2022/11/01 16:44:01;;;;;;;15.40;4.00;;;;;;;6.63;47.97;99804.45;24621;1325;3053215;-70
2022/11/01 16:46:31;;;;;;;12.20;4.70;;;;;;;6.68;47.81;99803.23;24549;1333;3026453;-66
2022/11/01 16:49:04;;;;;;;9.70;4.30;;;;;;;6.67;47.80;99809.70;24476;1332;3026680;-65
2022/11/01 16:51:33;;;;;;;8.90;4.10;;;;;;;6.64;47.99;99802.32;24599;1333;3026472;-64
2022/11/01 16:54:02;;;;;;;9.00;3.70;;;;;;;6.63;47.97;99788.27;24544;1333;3027148;-67
2022/11/01 16:56:33;;;;;;;11.10;4.40;;;;;;;6.65;48.43;99785.77;24545;1326;3052789;-63
2022/11/01 16:59:05;;;;;;;11.00;4.40;;;;;;;6.69;49.39;99782.98;24586;1333;3027784;-65
2022/11/01 17:01:34;;;;;;;11.70;4.20;;;;;;;6.69;50.22;99784.02;24526;1333;3026023;-67
2022/11/01 17:04:03;;;;;;;11.60;4.60;;;;;;;6.66;51.32;99787.63;24653;1333;3025949;-66
2022/11/01 17:06:35;;;;;;;11.70;4.50;;;;;;;6.59;52.40;99788.08;24620;1333;3051838;-63
2022/11/01 17:09:09;;;;;;;11.50;5.10;;;;;;;6.59;52.56;99795.04;24710;1325;3028188;-66
2022/11/01 17:11:41;;;;;;;11.90;4.80;;;;;;;6.56;53.18;99794.63;24606;1326;3068217;-62
2022/11/01 17:14:11;;;;;;;15.10;4.90;;;;;;;6.50;53.50;99798.51;24591;1332;3026092;-68
2022/11/01 17:16:42;;;;;;;15.80;5.10;;;;;;;6.52;53.81;99793.02;24720;1326;3026354;-67
2022/11/01 17:19:18;;;;;;;13.60;5.70;;;;;;;6.52;54.01;99789.39;24567;1333;3026677;-65
2022/11/01 17:21:47;;;;;;;11.10;5.00;;;;;;;6.50;53.82;99783.70;24602;1333;3054405;-61
2022/11/01 17:24:19;;;;;;;13.10;5.00;;;;;;;6.51;54.08;99784.36;24570;1335;3027422;-65
2022/11/01 17:26:49;;;;;;;10.90;4.90;;;;;;;6.60;53.68;99787.70;24540;1333;3052311;-63
2022/11/01 17:29:17;;;;;;;15.60;5.40;;;;;;;6.57;54.22;99792.48;24523;1332;3025805;-63
2022/11/01 17:31:47;;;;;;;12.60;4.90;;;;;;;6.52;54.58;99788.35;24658;1332;3026155;-70
2022/11/01 17:34:16;;;;;;;13.50;5.80;;;;;;;6.50;55.07;99782.52;24566;1332;3052752;-63
2022/11/01 17:36:46;;;;;;;14.20;5.70;;;;;;;6.55;54.90;99792.41;24687;1332;3025837;-67
2022/11/01 17:39:15;;;;;;;14.90;5.60;;;;;;;6.52;55.42;99789.73;24714;1325;3055667;-64
2022/11/01 17:41:44;;;;;;;12.50;4.80;;;;;;;6.56;55.13;99792.73;24743;1327;3027356;-66
2022/11/01 17:44:14;;;;;;;11.50;5.00;;;;;;;6.58;55.14;99790.39;24845;1333;3050064;-61
2022/11/01 17:46:43;;;;;;;10.80;4.50;;;;;;;6.58;55.57;99793.54;24828;1333;3027422;-62
2022/11/01 17:49:20;;;;;;;11.20;4.30;;;;;;;6.51;55.96;99787.52;24754;1326;3027683;-65
2022/11/01 17:51:49;;;;;;;14.70;5.10;;;;;;;6.45;56.66;99790.54;24749;1333;3055101;-65
2022/11/01 17:54:18;;;;;;;16.10;5.80;;;;;;;6.46;57.17;99791.88;24621;1326;3029109;-68
2022/11/01 17:56:48;;;;;;;13.60;6.10;;;;;;;6.47;57.40;99795.48;24527;1326;3053846;-65
2022/11/01 17:59:18;;;;;;;12.40;5.10;;;;;;;6.45;57.63;99798.20;24617;1334;3025952;-69
2022/11/01 18:01:50;;;;;;;12.00;4.60;;;;;;;6.38;58.21;99795.30;24616;1325;3027702;-65
2022/11/01 18:04:19;;;;;;;13.50;5.20;;;;;;;6.34;58.75;99803.98;24686;1326;3026614;-68
2022/11/01 18:06:50;;;;;;;16.30;5.40;;;;;;;6.39;58.67;99791.45;24614;1333;3053770;-62
2022/11/01 18:09:23;;;;;;;14.70;6.00;;;;;;;6.30;59.55;99797.36;24635;1327;3028328;-67
2022/11/01 18:12:02;;;;;;;16.40;6.00;;;;;;;6.31;59.67;99807.91;24631;1333;3028779;-62
2022/11/01 18:14:57;;;;;;;19.00;6.20;;;;;;;6.31;59.99;99809.48;24784;1326;3050571;-68
2022/11/01 18:17:46;;;;;;;15.60;5.40;;;;;;;6.29;60.44;99808.52;24825;1326;3070947;-69
2022/11/01 18:20:48;;;;;;;14.20;5.60;;;;;;;6.32;60.82;99809.63;24641;1332;3051724;-68
2022/11/01 18:23:18;;;;;;;12.70;5.60;;;;;;;6.46;59.78;99800.05;24830;1332;3056985;-67
2022/11/01 18:25:49;;;;;;;15.90;5.80;;;;;;;6.39;60.63;99799.64;24561;1332;3026450;-61
2022/11/01 18:28:25;;;;;;;16.60;5.80;;;;;;;6.32;61.22;99794.85;24510;1333;3026526;-67
2022/11/01 18:31:09;;;;;;;12.40;5.60;;;;;;;6.34;61.43;99799.98;24556;1330;3053521;-70
2022/11/01 18:33:47;;;;;;;12.80;5.30;;;;;;;6.36;61.55;99796.77;24626;1333;3053250;-68
2022/11/01 18:36:28;;;;;;;13.40;5.40;;;;;;;6.31;61.84;99795.40;24632;1331;3048826;-58
2022/11/01 18:39:11;;;;;;;12.40;5.10;;;;;;;6.31;61.93;99800.61;24655;1326;3070159;-66
2022/11/01 18:41:43;;;;;;;11.70;4.80;;;;;;;6.32;61.80;99804.41;24713;1322;3049063;-65
2022/11/01 18:44:12;;;;;;;13.00;5.70;;;;;;;6.33;61.73;99811.51;24788;1333;3027787;-65
2022/11/01 18:46:48;;;;;;;10.20;5.40;;;;;;;6.33;61.63;99819.17;24803;1333;3026963;-63
2022/11/01 18:49:18;;;;;;;11.40;4.30;;;;;;;6.29;61.81;99803.47;24666;1326;3050926;-66
2022/11/01 18:51:48;;;;;;;12.20;5.30;;;;;;;6.37;61.58;99791.86;24910;1327;3025927;-68
2022/11/01 18:54:27;;;;;;;13.50;5.40;;;;;;;6.42;61.47;99793.59;24898;1319;3071472;-66
2022/11/01 18:56:57;;;;;;;12.00;4.40;;;;;;;6.47;60.97;99794.98;24840;1340;3051707;-66
2022/11/01 18:59:28;;;;;;;17.10;4.00;;;;;;;6.52;61.10;99795.67;24816;1334;3027783;-63
2022/11/01 19:02:15;;;;;;;11.50;4.30;;;;;;;6.46;61.19;99803.71;24924;1323;3028342;-62
2022/11/01 19:04:45;;;;;;;8.10;3.90;;;;;;;6.42;61.43;99797.06;24787;1333;3054422;-65
2022/11/01 19:07:19;;;;;;;11.50;4.50;;;;;;;6.40;61.57;99799.58;24639;1332;3028162;-68
2022/11/01 19:09:51;;;;;;;9.90;4.20;;;;;;;6.52;60.92;99789.55;24724;1324;3052332;-64
2022/11/01 19:12:20;;;;;;;13.20;4.90;;;;;;;6.55;61.03;99792.92;24688;1327;3028385;-65
2022/11/01 19:14:56;;;;;;;10.80;4.80;;;;;;;6.50;61.33;99788.95;24613;1317;3026606;-65
2022/11/01 19:17:27;;;;;;;9.30;4.40;;;;;;;6.56;61.08;99790.80;24713;1333;3051768;-69
2022/11/01 19:19:56;;;;;;;12.40;4.70;;;;;;;6.51;61.36;99781.95;24742;1333;3027690;-67
2022/11/01 19:22:37;;;;;;;10.40;4.40;;;;;;;6.54;61.16;99779.92;24697;1332;3028767;-69
2022/11/01 19:25:20;;;;;;;11.00;4.50;;;;;;;6.53;61.30;99779.76;24633;1333;3054937;-74
2022/11/01 19:27:51;;;;;;;13.80;5.30;;;;;;;6.51;61.47;99779.48;24582;1333;3052723;-63
2022/11/01 19:30:28;;;;;;;18.50;6.70;;;;;;;6.50;60.98;99787.36;24581;1325;3027652;-64
2022/11/01 19:33:36;;;;;;;14.70;5.70;;;;;;;6.58;61.21;99798.23;24507;1332;3048832;-64
2022/11/01 19:36:18;;;;;;;12.70;5.10;;;;;;;6.52;61.37;99796.36;24658;1325;3070095;-65